Aérodrome :
LOGIN :

S'inscrire | Disclaimer

   EN    FR    IT 

 










Légende :    VFR   VFR Marginal   IFR   IFR Intensif   IFR Très Intensif
Visi : 
Plafond : 
>= 8 km
>= 3000ft
5 à 8 km
1000 à 3000 ft
1500m à 5 km
500 à 1000 ft
800 à 1500m
200 à 500 ft
< 800m
< 200 ft
Symboles :   Orages  Brouillard  Fortes neiges  Fortes précipitations  Vent > 20 kt
SIGMETs :   Divers  Orages  Givrage  Turbulence  Onde Orograph.  Cendres Volcan.







- Altitude de l'aérodrome : 122 ft
- Code IATA : TXL


EDDT - Berlin Tegel Int.

DERNIER METAR :
  • 270250Z 02004KT 340V060 CAVOK 14/13 Q1021 BECMG 4000 BR BKN004

METARs EXPIRÉS :
  • 270220Z 03004KT 350V080 CAVOK 15/13 Q1021
  • 270150Z 04003KT 360V100 CAVOK 15/13 Q1021
  • 270120Z 03003KT 340V090 CAVOK 15/13 Q1022
  • 270050Z 02005KT 340V050 CAVOK 16/13 Q1022
  • 270020Z 02004KT 340V050 CAVOK 16/14 Q1022

TAF TAF EDDT
Valide du 27 à 00h jusqu'au 28 à 00h UTC


262300Z 2700/2724 04004KT CAVOK
PROB40
TEMPO 2703/2706 2500 BR BKN003
BECMG 2709/2711 10006KT
PROB30
TEMPO 2711/2717 07015G25KT 4000 TSRA BKN030CB
Pas de NOTAMs connus pour ce terrain.



MET'MAP, la Météo Aéronautique d'un coup d'oeil ! - Copyright ORBIFLY Décembre 2007 - Disclaimer

ORBIFLY MET'MAP TEAM :

Programmation & Développement : Alexandra Zaïnal
Conception & Développement : Baudouin d'Aumeries
Co-Programmation & Développement : Marc-Olivier Méhu
Soutien technique & logistique : Manuel Goepfert

Contact : metmap@orbifly.com




SOURCES & CREDITS :

   NOAA